createdAt,value
2023-05-13T00:02:02.301Z,22.10
2023-05-13T00:04:29.331Z,19.80
2023-05-13T00:06:56.255Z,18.90
2023-05-13T00:09:24.158Z,17.70
2023-05-13T00:11:51.032Z,23.40
2023-05-13T00:14:18.063Z,16.70
2023-05-13T00:16:45.386Z,21.40
2023-05-13T00:19:12.634Z,20.40
2023-05-13T00:21:39.858Z,20.50
2023-05-13T00:24:08.257Z,18.30
2023-05-13T00:26:35.357Z,14.50
2023-05-13T00:29:02.342Z,18.10
2023-05-13T00:31:30.127Z,15.50
2023-05-13T00:33:57.419Z,17.90
2023-05-13T00:36:24.436Z,19.10
2023-05-13T00:38:51.572Z,16.80
2023-05-13T00:41:18.713Z,17.40
2023-05-13T00:43:45.733Z,17.30
2023-05-13T00:46:13.157Z,18.40
2023-05-13T00:48:42.927Z,21.60
2023-05-13T00:51:09.966Z,20.50
2023-05-13T00:53:38.775Z,16.20
2023-05-13T00:56:06.285Z,21.60
2023-05-13T00:58:33.370Z,18.60
2023-05-13T01:01:17.748Z,16.50
2023-05-13T01:03:52.177Z,15.90
2023-05-13T01:06:24.176Z,18.00
2023-05-13T01:09:04.228Z,17.00
2023-05-13T01:11:38.155Z,13.70
2023-05-13T01:14:12.425Z,19.00
2023-05-13T01:16:50.521Z,21.20
2023-05-13T01:19:36.856Z,17.20
2023-05-13T01:22:03.933Z,21.60
2023-05-13T01:24:30.837Z,16.20
2023-05-13T01:26:58.306Z,21.60
2023-05-13T01:29:25.690Z,15.50
2023-05-13T01:31:55.170Z,15.60
2023-05-13T01:34:23.956Z,18.30
2023-05-13T01:36:51.468Z,21.60
2023-05-13T01:39:21.373Z,20.40
2023-05-13T01:41:49.845Z,19.10
2023-05-13T01:44:18.010Z,20.00
2023-05-13T01:46:45.595Z,20.90
2023-05-13T01:49:15.485Z,19.10
2023-05-13T01:51:42.426Z,19.60
2023-05-13T01:54:09.793Z,24.20
2023-05-13T01:56:38.744Z,21.40
2023-05-13T01:59:05.818Z,17.50
2023-05-13T02:01:32.840Z,21.60
2023-05-13T02:04:00.804Z,16.40
2023-05-13T02:06:28.633Z,20.50
2023-05-13T02:08:56.076Z,18.80
2023-05-13T02:11:23.639Z,19.20
2023-05-13T02:13:50.792Z,18.20
2023-05-13T02:16:19.384Z,17.00
2023-05-13T02:18:46.553Z,15.40
2023-05-13T02:21:16.366Z,15.90
2023-05-13T02:23:43.980Z,16.50
2023-05-13T02:26:11.269Z,18.10
2023-05-13T02:28:38.488Z,14.40
2023-05-13T02:31:06.025Z,14.50
2023-05-13T02:33:36.223Z,15.40
2023-05-13T02:36:03.423Z,11.70
2023-05-13T02:41:16.912Z,17.80
2023-05-13T02:43:43.915Z,13.50
2023-05-13T02:46:10.907Z,13.70
2023-05-13T02:48:37.811Z,16.50
2023-05-13T02:51:04.776Z,13.70
2023-05-13T02:53:32.286Z,16.40
2023-05-13T02:56:03.054Z,17.00
2023-05-13T02:58:30.024Z,19.80
2023-05-13T03:00:57.296Z,17.50
2023-05-13T03:03:25.304Z,12.90
2023-05-13T03:05:52.581Z,13.70
2023-05-13T03:08:19.628Z,12.00
2023-05-13T03:10:46.912Z,19.00
2023-05-13T03:13:14.026Z,22.60
2023-05-13T03:15:43.471Z,18.50
2023-05-13T03:18:11.510Z,23.30
2023-05-13T03:20:38.552Z,18.30
2023-05-13T03:23:05.813Z,22.70
2023-05-13T03:25:33.359Z,19.90
2023-05-13T03:28:00.550Z,20.50
2023-05-13T03:30:30.923Z,19.50
2023-05-13T03:33:05.014Z,22.50
2023-05-13T03:35:32.097Z,20.20
2023-05-13T03:37:59.251Z,23.70
2023-05-13T03:40:26.631Z,22.00
2023-05-13T03:42:54.274Z,22.90
2023-05-13T03:45:22.966Z,27.40
2023-05-13T03:47:52.369Z,20.90
2023-05-13T03:50:20.463Z,26.60
2023-05-13T03:52:47.888Z,22.90
2023-05-13T03:55:15.936Z,22.80
2023-05-13T03:57:43.520Z,26.50
2023-05-13T04:00:14.499Z,22.80
2023-05-13T04:02:44.437Z,22.50
2023-05-13T04:05:14.555Z,23.20
2023-05-13T04:07:42.053Z,26.60
2023-05-13T04:10:14.582Z,21.20
2023-05-13T04:12:44.975Z,21.90
2023-05-13T04:15:14.652Z,20.50
2023-05-13T04:17:44.095Z,22.50
2023-05-13T04:20:13.557Z,23.20
2023-05-13T04:22:40.562Z,22.70
2023-05-13T04:25:08.675Z,23.00
2023-05-13T04:27:36.051Z,22.50
2023-05-13T04:30:11.592Z,20.50
2023-05-13T04:32:40.187Z,22.80
2023-05-13T04:35:09.329Z,23.50
2023-05-13T04:37:46.890Z,20.20
2023-05-13T04:40:16.683Z,23.90
2023-05-13T04:42:43.944Z,23.70
2023-05-13T04:45:14.707Z,22.00
2023-05-13T04:47:42.330Z,21.80
2023-05-13T04:50:11.083Z,23.70
2023-05-13T04:52:38.991Z,23.40
2023-05-13T04:55:06.661Z,24.30
2023-05-13T04:57:33.801Z,25.00
2023-05-13T05:00:04.021Z,20.40
2023-05-13T05:02:33.215Z,22.30
2023-05-13T05:05:00.890Z,25.20
2023-05-13T05:07:28.184Z,21.70
2023-05-13T05:09:57.561Z,19.00
2023-05-13T05:12:26.037Z,23.70
2023-05-13T05:14:53.370Z,21.30
2023-05-13T05:17:21.199Z,18.40
2023-05-13T05:19:48.405Z,25.40
2023-05-13T05:22:15.758Z,22.80
2023-05-13T05:24:42.970Z,21.50
2023-05-13T05:27:10.058Z,27.00
2023-05-13T05:29:37.753Z,24.80
2023-05-13T05:32:05.442Z,23.60
2023-05-13T05:34:33.033Z,24.10
2023-05-13T05:37:00.514Z,23.80
2023-05-13T05:39:27.441Z,19.80
2023-05-13T05:41:56.182Z,20.60
2023-05-13T05:44:23.486Z,20.70
2023-05-13T05:46:52.794Z,20.20
2023-05-13T05:49:20.049Z,18.00
2023-05-13T05:51:48.993Z,17.50
2023-05-13T05:54:16.248Z,22.80
2023-05-13T05:56:43.119Z,16.20
2023-05-13T05:59:10.265Z,18.80
2023-05-13T06:01:37.558Z,14.70
2023-05-13T06:04:04.724Z,16.40
2023-05-13T06:06:32.427Z,15.30
2023-05-13T06:08:59.502Z,18.70
2023-05-13T06:11:27.786Z,15.00
2023-05-13T06:13:57.674Z,13.60
2023-05-13T06:16:24.782Z,16.80
2023-05-13T06:18:51.693Z,20.90
2023-05-13T06:21:19.068Z,16.60
2023-05-13T06:23:48.862Z,12.90
2023-05-13T06:26:15.699Z,14.40
2023-05-13T06:28:42.702Z,12.50
2023-05-13T06:31:09.675Z,15.20
2023-05-13T06:33:37.490Z,18.30
2023-05-13T06:36:04.933Z,9.20
2023-05-13T06:38:32.096Z,10.80
2023-05-13T06:41:00.028Z,15.50
2023-05-13T06:43:30.727Z,10.80
2023-05-13T06:45:59.855Z,11.20
2023-05-13T06:48:28.285Z,17.60
2023-05-13T06:50:55.529Z,13.80
2023-05-13T06:53:22.464Z,15.70
2023-05-13T06:55:50.094Z,12.20
2023-05-13T06:58:17.744Z,13.00
2023-05-13T07:00:46.862Z,12.40
2023-05-13T07:03:14.199Z,12.10
2023-05-13T07:05:41.353Z,6.30
2023-05-13T07:08:08.848Z,11.50
2023-05-13T07:10:37.136Z,9.70
2023-05-13T07:13:04.711Z,10.60
2023-05-13T07:15:31.559Z,10.40
2023-05-13T07:17:58.472Z,9.00
2023-05-13T07:20:26.769Z,12.70
2023-05-13T07:22:54.580Z,8.60
2023-05-13T07:25:21.713Z,8.50
2023-05-13T07:27:48.977Z,8.40
2023-05-13T07:30:17.218Z,9.50
2023-05-13T07:32:44.346Z,7.20
2023-05-13T07:35:12.834Z,4.70
2023-05-13T07:37:39.845Z,7.50
2023-05-13T07:40:08.876Z,5.40
2023-05-13T07:42:36.122Z,7.30
2023-05-13T07:45:03.327Z,6.00
2023-05-13T07:47:31.538Z,5.20
2023-05-13T07:49:59.036Z,9.10
2023-05-13T07:52:26.483Z,8.20
2023-05-13T07:54:53.565Z,6.10
2023-05-13T07:57:20.919Z,7.50
2023-05-13T07:59:48.082Z,8.10
2023-05-13T08:02:15.280Z,6.70
2023-05-13T08:04:43.093Z,6.70
2023-05-13T08:07:11.297Z,5.60
2023-05-13T08:09:38.166Z,9.00
2023-05-13T08:12:06.457Z,4.80
2023-05-13T08:14:33.402Z,3.40
2023-05-13T08:17:01.068Z,8.80
2023-05-13T08:19:28.354Z,8.20
2023-05-13T08:21:55.445Z,8.60
2023-05-13T08:24:22.350Z,8.80
2023-05-13T08:26:49.497Z,4.10
2023-05-13T08:29:16.430Z,8.00
2023-05-13T08:31:43.606Z,9.80
2023-05-13T08:34:11.258Z,6.70
2023-05-13T08:36:38.075Z,5.10
2023-05-13T08:39:05.359Z,5.00
2023-05-13T08:41:33.938Z,4.80
2023-05-13T08:44:01.970Z,7.80
2023-05-13T08:46:31.926Z,6.40
2023-05-13T08:49:00.041Z,3.50
2023-05-13T08:51:26.941Z,6.90
2023-05-13T08:53:54.782Z,5.10
2023-05-13T08:56:25.743Z,5.30
2023-05-13T08:58:53.075Z,8.50
2023-05-13T09:01:20.086Z,3.80
2023-05-13T09:03:57.818Z,5.10
2023-05-13T09:06:25.094Z,4.80
2023-05-13T09:08:52.146Z,4.20
2023-05-13T09:11:19.423Z,7.10
2023-05-13T09:13:46.914Z,6.90
2023-05-13T09:16:15.631Z,7.80
2023-05-13T09:18:44.831Z,4.20
2023-05-13T09:21:28.451Z,6.10
2023-05-13T09:24:08.680Z,4.00
2023-05-13T09:26:37.932Z,5.40
2023-05-13T09:29:22.833Z,5.70
2023-05-13T09:31:52.434Z,9.40
2023-05-13T09:34:27.702Z,9.40
2023-05-13T09:37:00.900Z,6.30
2023-05-13T09:39:28.082Z,3.50
2023-05-13T09:41:55.345Z,5.80
2023-05-13T09:44:22.874Z,2.50
2023-05-13T09:46:51.863Z,6.80
2023-05-13T09:49:19.171Z,2.80
2023-05-13T09:51:47.365Z,6.70
2023-05-13T09:54:14.206Z,4.10
2023-05-13T09:56:41.520Z,5.50
2023-05-13T09:59:08.497Z,4.70
2023-05-13T10:01:37.581Z,7.70
2023-05-13T10:04:06.354Z,2.90
2023-05-13T10:06:34.649Z,4.10
2023-05-13T10:09:04.220Z,2.60
2023-05-13T10:11:34.594Z,5.50
2023-05-13T10:14:06.160Z,4.80
2023-05-13T10:16:34.806Z,4.70
2023-05-13T10:19:02.509Z,6.00
2023-05-13T10:21:30.070Z,3.30
2023-05-13T10:23:59.507Z,4.40
2023-05-13T10:26:26.844Z,4.60
2023-05-13T10:28:55.365Z,5.40
2023-05-13T10:31:22.417Z,8.80
2023-05-13T10:33:49.251Z,7.10
2023-05-13T10:36:36.280Z,5.00
2023-05-13T10:42:09.286Z,4.50
2023-05-13T10:44:36.631Z,4.10
2023-05-13T10:47:04.492Z,4.30
2023-05-13T10:49:37.265Z,4.80
2023-05-13T10:52:10.966Z,7.40
2023-05-13T10:54:42.170Z,3.90
2023-05-13T10:57:09.750Z,5.60
2023-05-13T10:59:38.957Z,7.20
2023-05-13T11:02:23.234Z,6.60
2023-05-13T11:05:02.059Z,4.20
2023-05-13T11:07:31.506Z,3.10
2023-05-13T11:09:58.614Z,3.00
2023-05-13T11:12:25.592Z,5.90
2023-05-13T11:14:56.608Z,6.10
2023-05-13T11:17:24.270Z,4.20
2023-05-13T11:19:53.454Z,4.90
2023-05-13T11:22:24.227Z,7.30
2023-05-13T11:25:08.384Z,8.90
2023-05-13T11:27:42.159Z,3.80
2023-05-13T11:30:23.137Z,3.70
2023-05-13T11:32:58.720Z,5.30
2023-05-13T11:35:28.195Z,5.90
2023-05-13T11:37:57.579Z,4.70
2023-05-13T11:40:28.140Z,3.40
2023-05-13T11:42:55.906Z,7.40
2023-05-13T11:45:24.395Z,4.00
2023-05-13T11:47:51.863Z,3.20
2023-05-13T11:50:23.089Z,6.00
2023-05-13T11:52:56.047Z,3.10
2023-05-13T11:55:29.866Z,5.10
2023-05-13T11:57:58.127Z,5.80
2023-05-13T12:00:29.096Z,4.80
2023-05-13T12:02:57.124Z,6.40
2023-05-13T12:05:25.200Z,3.80
2023-05-13T12:07:53.250Z,4.70
2023-05-13T12:10:20.518Z,3.50
2023-05-13T12:12:48.636Z,4.90
2023-05-13T12:15:17.834Z,3.10
2023-05-13T12:17:45.449Z,5.30
2023-05-13T12:20:15.468Z,6.30
2023-05-13T12:22:53.525Z,5.30
2023-05-13T12:25:45.205Z,3.40
2023-05-13T12:28:17.787Z,3.00
2023-05-13T12:30:50.509Z,3.50
2023-05-13T12:33:19.902Z,3.10
2023-05-13T12:35:49.432Z,9.00
2023-05-13T12:38:19.700Z,3.60
2023-05-13T12:40:47.103Z,4.90
2023-05-13T12:43:15.329Z,4.00
2023-05-13T12:45:45.181Z,5.40
2023-05-13T12:48:12.537Z,5.30
2023-05-13T12:50:39.399Z,5.20
2023-05-13T12:53:07.231Z,3.10
2023-05-13T12:55:37.077Z,5.70
2023-05-13T12:58:06.435Z,4.40
2023-05-13T13:00:33.829Z,3.70
2023-05-13T13:03:00.837Z,4.50
2023-05-13T13:05:27.981Z,3.70
2023-05-13T13:07:55.310Z,4.40
2023-05-13T13:10:22.232Z,6.50
2023-05-13T13:12:49.647Z,6.70
2023-05-13T13:15:16.776Z,5.30
2023-05-13T13:17:43.663Z,4.70
2023-05-13T13:20:11.469Z,2.20
2023-05-13T13:22:39.121Z,3.70
2023-05-13T13:25:06.891Z,9.30
2023-05-13T13:27:33.813Z,4.40
2023-05-13T13:30:01.332Z,3.60
2023-05-13T13:32:28.374Z,4.80
2023-05-13T13:34:55.226Z,3.10
2023-05-13T13:37:22.218Z,4.80
2023-05-13T13:39:49.045Z,3.60
2023-05-13T13:42:15.853Z,2.40
2023-05-13T13:44:43.049Z,5.80
2023-05-13T13:47:10.260Z,5.20
2023-05-13T13:49:37.537Z,7.60
2023-05-13T13:52:04.768Z,3.80
2023-05-13T13:54:31.695Z,4.30
2023-05-13T13:56:58.859Z,7.30
2023-05-13T13:59:25.927Z,2.70
2023-05-13T14:01:53.885Z,2.60
2023-05-13T14:04:26.323Z,5.50
2023-05-13T14:06:53.709Z,1.70
2023-05-13T14:09:20.876Z,4.70
2023-05-13T14:11:47.827Z,2.80
2023-05-13T14:14:14.863Z,5.90
2023-05-13T14:16:42.074Z,5.10
2023-05-13T14:19:09.037Z,4.50
2023-05-13T14:21:36.058Z,5.70
2023-05-13T14:24:03.135Z,3.50
2023-05-13T14:26:30.559Z,4.80
2023-05-13T14:28:57.652Z,7.50
2023-05-13T14:31:24.560Z,7.90
2023-05-13T14:33:51.651Z,14.30
2023-05-13T14:36:20.748Z,7.80
2023-05-13T14:38:47.691Z,6.80
2023-05-13T14:41:19.972Z,9.00
2023-05-13T14:43:47.576Z,7.70
2023-05-13T14:46:14.723Z,3.20
2023-05-13T14:48:42.021Z,3.80
2023-05-13T14:51:11.146Z,3.00
2023-05-13T14:53:38.425Z,4.50
2023-05-13T14:56:05.887Z,3.10
2023-05-13T14:58:33.075Z,3.10
2023-05-13T15:01:00.494Z,5.70
2023-05-13T15:03:27.895Z,3.30
2023-05-13T15:05:56.181Z,4.30
2023-05-13T15:08:23.722Z,3.70
2023-05-13T15:10:50.973Z,5.00
2023-05-13T15:13:18.940Z,5.10
2023-05-13T15:15:45.993Z,4.70
2023-05-13T15:18:12.936Z,4.40
2023-05-13T15:20:40.186Z,5.80
2023-05-13T15:23:07.286Z,5.30
2023-05-13T15:25:34.488Z,6.20
2023-05-13T15:28:01.547Z,5.90
2023-05-13T15:30:28.490Z,6.10
2023-05-13T15:32:55.412Z,4.00
2023-05-13T15:35:22.797Z,7.70
2023-05-13T15:37:49.856Z,5.40
2023-05-13T15:40:17.130Z,9.80
2023-05-13T15:42:44.718Z,6.10
2023-05-13T15:45:12.473Z,5.80
2023-05-13T15:47:40.831Z,6.20
2023-05-13T15:50:09.475Z,4.20
2023-05-13T15:52:36.562Z,3.90
2023-05-13T15:55:03.912Z,4.60
2023-05-13T15:57:31.151Z,6.10
2023-05-13T15:59:58.789Z,6.10
2023-05-13T16:02:25.669Z,5.20
2023-05-13T16:04:53.093Z,2.20
2023-05-13T16:07:19.937Z,3.80
2023-05-13T16:09:46.877Z,3.10
2023-05-13T16:12:14.057Z,3.90
2023-05-13T16:14:41.040Z,5.00
2023-05-13T16:17:08.331Z,2.40
2023-05-13T16:19:36.224Z,2.10
2023-05-13T16:22:33.617Z,5.30
2023-05-13T16:25:02.400Z,4.20
2023-05-13T16:27:29.863Z,4.10
2023-05-13T16:29:57.212Z,4.20
2023-05-13T16:32:24.748Z,9.10
2023-05-13T16:34:52.231Z,4.40
2023-05-13T16:37:19.231Z,5.00
2023-05-13T16:39:46.477Z,4.30
2023-05-13T16:42:13.823Z,3.00
2023-05-13T16:44:40.858Z,3.30
2023-05-13T16:47:09.671Z,3.30
2023-05-13T16:49:36.829Z,4.90
2023-05-13T16:52:03.677Z,3.60
2023-05-13T16:54:31.152Z,11.90
2023-05-13T16:56:58.273Z,10.50
2023-05-13T16:59:26.657Z,7.40
2023-05-13T17:01:54.524Z,7.30
2023-05-13T17:04:22.194Z,9.10
2023-05-13T17:06:49.740Z,4.40
2023-05-13T17:09:16.503Z,5.60
2023-05-13T17:11:43.673Z,5.00
2023-05-13T17:14:10.597Z,6.90
2023-05-13T17:16:38.767Z,8.20
2023-05-13T17:19:05.846Z,7.10
2023-05-13T17:21:32.736Z,10.60
2023-05-13T17:24:00.516Z,8.80
2023-05-13T17:26:27.867Z,3.70
2023-05-13T17:28:55.016Z,3.70
2023-05-13T17:31:22.147Z,4.50
2023-05-13T17:33:49.010Z,5.40
2023-05-13T17:36:16.119Z,10.40
2023-05-13T17:38:43.304Z,6.10
2023-05-13T17:41:10.566Z,6.10
2023-05-13T17:43:37.594Z,8.70
2023-05-13T17:46:05.069Z,12.00
2023-05-13T17:48:33.109Z,8.30
2023-05-13T17:51:00.480Z,16.30
2023-05-13T17:53:27.645Z,12.30
2023-05-13T17:55:54.860Z,8.00
2023-05-13T17:58:22.051Z,9.10
2023-05-13T18:00:49.847Z,3.20
2023-05-13T18:03:16.774Z,5.90
2023-05-13T18:05:43.781Z,3.20
2023-05-13T18:08:10.623Z,2.30
2023-05-13T18:10:37.472Z,7.00
2023-05-13T18:13:04.953Z,3.20
2023-05-13T18:15:32.294Z,3.20
2023-05-13T18:17:59.279Z,2.40
2023-05-13T18:20:26.718Z,2.80
2023-05-13T18:22:54.038Z,5.60
2023-05-13T18:25:21.058Z,5.50
2023-05-13T18:27:50.216Z,4.50
2023-05-13T18:30:18.558Z,4.10
2023-05-13T18:32:45.876Z,5.10
2023-05-13T18:35:13.295Z,7.00
2023-05-13T18:37:40.547Z,4.60
2023-05-13T18:40:09.439Z,5.90
2023-05-13T18:42:36.579Z,3.80
2023-05-13T18:45:03.753Z,3.10
2023-05-13T18:47:30.646Z,4.70
2023-05-13T18:49:57.879Z,4.40
2023-05-13T18:52:26.235Z,5.00
2023-05-13T18:54:53.513Z,4.40
2023-05-13T18:57:20.846Z,6.00
2023-05-13T18:59:48.196Z,10.60
2023-05-13T19:02:15.538Z,12.00
2023-05-13T19:04:42.783Z,10.70
2023-05-13T19:07:10.241Z,10.00
2023-05-13T19:09:37.107Z,10.20
2023-05-13T19:12:04.135Z,9.60
2023-05-13T19:14:31.123Z,10.30
2023-05-13T19:16:58.423Z,10.00
2023-05-13T19:19:25.752Z,8.40
2023-05-13T19:21:52.805Z,12.10
2023-05-13T19:24:19.769Z,11.30
2023-05-13T19:26:46.639Z,9.50
2023-05-13T19:29:13.677Z,15.30
2023-05-13T19:31:40.945Z,14.10
2023-05-13T19:34:07.971Z,12.10
2023-05-13T19:36:35.128Z,11.50
2023-05-13T19:39:02.188Z,11.90
2023-05-13T19:41:29.111Z,10.30
2023-05-13T19:43:56.775Z,16.00
2023-05-13T19:46:24.037Z,11.10
2023-05-13T19:48:51.232Z,11.80
2023-05-13T19:51:18.537Z,9.60
2023-05-13T19:53:45.677Z,10.20
2023-05-13T19:56:12.662Z,12.30
2023-05-13T19:58:39.779Z,8.10
2023-05-13T20:01:08.046Z,13.10
2023-05-13T20:03:35.030Z,13.10
2023-05-13T20:06:02.531Z,10.30
2023-05-13T20:08:31.580Z,9.90
2023-05-13T20:10:58.427Z,9.50
2023-05-13T20:13:26.260Z,13.10
2023-05-13T20:15:53.087Z,12.60
2023-05-13T20:18:20.308Z,9.20
2023-05-13T20:20:48.095Z,13.40
2023-05-13T20:23:15.120Z,14.70
2023-05-13T20:25:42.012Z,12.70
2023-05-13T20:28:09.282Z,13.20
2023-05-13T20:30:36.457Z,11.80
2023-05-13T20:33:04.159Z,10.00
2023-05-13T20:35:31.331Z,11.20
2023-05-13T20:37:58.886Z,10.40
2023-05-13T20:40:29.129Z,8.40
2023-05-13T20:42:56.533Z,10.10
2023-05-13T20:45:23.623Z,10.70
2023-05-13T20:47:51.279Z,11.90
2023-05-13T20:50:18.946Z,9.90
2023-05-13T20:52:45.809Z,15.40
2023-05-13T20:55:15.481Z,10.10
2023-05-13T20:57:44.294Z,14.40
2023-05-13T21:00:13.915Z,14.60
2023-05-13T21:02:41.604Z,16.50
2023-05-13T21:05:10.088Z,15.40
2023-05-13T21:07:37.776Z,12.50
2023-05-13T21:10:05.125Z,11.80
2023-05-13T21:12:32.410Z,12.50
2023-05-13T21:14:59.570Z,10.60
2023-05-13T21:17:26.750Z,15.60
2023-05-13T21:19:54.092Z,14.60
2023-05-13T21:22:21.828Z,14.80
2023-05-13T21:24:50.229Z,13.30
2023-05-13T21:27:17.357Z,14.00
2023-05-13T21:29:44.316Z,11.70
2023-05-13T21:32:12.082Z,12.80
2023-05-13T21:34:39.265Z,14.90
2023-05-13T21:37:08.640Z,14.40
2023-05-13T21:39:35.564Z,11.90
2023-05-13T21:42:03.448Z,10.80
2023-05-13T21:44:30.590Z,17.00
2023-05-13T21:46:57.480Z,12.20
2023-05-13T21:49:27.954Z,13.90
2023-05-13T21:51:55.056Z,10.90
2023-05-13T21:54:22.096Z,8.90
2023-05-13T21:56:49.608Z,15.60
2023-05-13T21:59:16.487Z,15.50
2023-05-13T22:01:43.608Z,15.90
2023-05-13T22:04:11.077Z,10.20
2023-05-13T22:06:38.138Z,9.90
2023-05-13T22:09:08.048Z,10.10
2023-05-13T22:11:35.278Z,12.20
2023-05-13T22:14:02.863Z,7.80
2023-05-13T22:16:30.002Z,13.10
2023-05-13T22:19:00.418Z,9.70
2023-05-13T22:21:27.670Z,15.50
2023-05-13T22:23:55.022Z,8.10
2023-05-13T22:26:22.482Z,11.30
2023-05-13T22:28:52.503Z,9.40
2023-05-13T22:31:19.576Z,8.80
2023-05-13T22:33:46.692Z,12.60
2023-05-13T22:36:13.856Z,10.50
2023-05-13T22:38:44.270Z,9.40
2023-05-13T22:41:12.212Z,10.40
2023-05-13T22:43:39.061Z,7.90
2023-05-13T22:46:06.477Z,12.20
2023-05-13T22:48:33.697Z,9.80
2023-05-13T22:51:00.514Z,13.20
2023-05-13T22:53:27.523Z,15.50
2023-05-13T22:55:55.041Z,9.10
2023-05-13T22:58:22.906Z,10.10
2023-05-13T23:00:51.289Z,9.50
2023-05-13T23:03:18.328Z,9.90
2023-05-13T23:05:45.585Z,8.20
2023-05-13T23:08:12.450Z,12.00
2023-05-13T23:10:39.697Z,11.10
2023-05-13T23:13:06.833Z,12.10
2023-05-13T23:15:33.903Z,10.90
2023-05-13T23:18:01.390Z,8.70
2023-05-13T23:20:28.385Z,10.70
2023-05-13T23:22:55.471Z,12.20
2023-05-13T23:25:22.684Z,11.80
2023-05-13T23:27:49.541Z,10.30
2023-05-13T23:30:18.289Z,10.70
2023-05-13T23:32:45.178Z,10.30
2023-05-13T23:35:13.579Z,8.70
2023-05-13T23:37:40.581Z,11.40
2023-05-13T23:40:10.146Z,9.10
2023-05-13T23:42:37.203Z,9.70
2023-05-13T23:45:04.214Z,10.70
2023-05-13T23:47:31.374Z,11.20
2023-05-13T23:49:58.375Z,10.30
2023-05-13T23:52:27.816Z,11.00
2023-05-13T23:54:55.246Z,7.70
2023-05-13T23:57:23.371Z,11.10
2023-05-13T23:59:51.105Z,10.80
